EST,Max TemperatureF,Mean TemperatureF,Min TemperatureF,Max Dew PointF,MeanDew PointF,Min DewpointF,Max Humidity, Mean Humidity, Min Humidity, Max Sea Level PressureIn, Mean Sea Level PressureIn, Min Sea Level PressureIn, Max VisibilityMiles, Mean VisibilityMiles, Min VisibilityMiles, Max Wind SpeedMPH, Mean Wind SpeedMPH, Max Gust SpeedMPH,PrecipitationIn, CloudCover, Events, WindDirDegrees
2011-12-1,53,40,27,32,29,25,92,65,38,30.39,30.33,30.22,10,10,6,9,2,13,0.00,0,Rain,35
2011-12-2,58,43,27,35,30,24,100,65,30,30.50,30.44,30.38,10,8,0,6,1,8,0.00,1,Fog,6
2011-12-3,58,44,30,36,33,28,92,66,40,30.50,30.44,30.39,10,10,7,7,1,10,0.00,0,,22
2011-12-4,66,49,31,47,40,30,96,70,44,30.40,30.31,30.19,10,9,7,16,4,20,0.00,3,,130
2011-12-5,72,59,46,57,48,43,87,66,44,30.18,30.08,29.97,10,10,6,28,8,38,0.11,4,Rain,179
2011-12-6,60,56,51,59,56,50,100,95,90,30.00,29.98,29.95,10,5,1,12,4,14,1.00,8,Rain-Thunderstorm,306
2011-12-7,51,43,34,50,39,26,100,85,70,30.23,29.92,29.79,10,5,1,16,7,24,0.93,8,Rain-Snow,329
2011-12-8,46,37,27,30,27,22,92,66,40,30.36,30.29,30.24,10,10,7,13,2,16,0.00,1,,48
2011-12-9,50,38,26,34,30,25,92,71,50,30.33,30.28,30.23,10,10,7,8,2,10,0.00,1,,282
2011-12-10,43,37,30,31,27,20,85,71,56,30.51,30.44,30.32,10,10,9,13,6,16,0.00,2,,29
2011-12-11,49,37,25,28,24,19,81,60,39,30.56,30.49,30.43,10,10,9,12,4,13,0.00,0,,29
2011-12-12,55,43,31,37,32,27,89,65,41,30.48,30.44,30.39,10,10,10,10,3,13,0.00,7,,7
2011-12-13,55,50,44,47,42,37,93,80,66,30.49,30.44,30.39,10,9,4,8,1,9,0.00,7,,252
2011-12-14,66,54,41,49,45,41,100,76,52,30.38,30.32,30.15,10,5,0,14,2,17,0.00,3,Fog,237
2011-12-15,68,57,45,57,52,43,100,79,58,30.18,30.13,30.07,10,9,2,28,10,33,0.24,6,Rain,242
2011-12-16,57,49,41,56,47,39,100,95,89,30.28,30.20,30.13,10,5,1,15,6,18,0.62,8,Rain,6
2011-12-17,45,38,31,37,31,27,93,73,53,30.36,30.30,30.26,10,10,10,14,4,16,0.00,4,,316
2011-12-18,49,38,26,31,28,24,92,67,42,30.40,30.35,30.31,10,10,9,9,3,13,0.00,0,,151
2011-12-19,55,42,28,34,30,27,92,67,41,30.32,30.25,30.18,10,10,10,9,1,12,0.00,0,,218
2011-12-20,57,48,38,44,39,34,86,70,54,30.19,30.11,30.03,10,10,10,10,2,12,0.00,7,,48
2011-12-21,65,57,49,62,54,45,93,85,77,30.01,29.91,29.85,10,8,2,24,8,29,0.25,6,Rain-Thunderstorm,235
2011-12-22,62,55,47,54,49,46,100,84,67,30.08,29.95,29.82,10,6,1,22,5,32,0.87,6,Rain,344
2011-12-23,50,46,42,47,42,37,93,80,66,30.34,30.22,30.08,10,10,4,9,3,10,0.01,8,Rain,312
2011-12-24,47,42,36,37,34,30,86,72,58,30.47,30.40,30.35,10,10,9,14,3,17,0.00,3,,11
2011-12-25,50,42,33,41,36,32,100,86,71,30.40,30.34,30.26,10,7,5,16,5,18,T,3,,227
2011-12-26,46,37,27,38,31,27,100,77,53,30.40,30.29,29.99,10,5,0,15,5,17,T,2,Fog-Rain,41
2011-12-27,48,43,38,45,38,33,100,88,76,29.99,29.76,29.65,10,6,1,31,12,40,0.88,8,Rain,257
2011-12-28,46,39,32,32,29,27,82,68,53,30.14,30.07,29.98,10,10,9,17,7,23,T,3,Rain,228
2011-12-29,53,41,28,34,29,25,92,67,41,30.10,30.02,29.95,10,10,10,20,6,23,0.00,0,,227
2011-12-30,62,51,40,47,40,30,77,66,55,30.02,29.93,29.81,10,10,10,26,11,35,0.00,4,,226
2011-12-31,58,49,39,43,37,34,89,66,43,30.13,30.06,29.91,10,10,10,16,6,20,0.00,0,,225